In Rescue
 
Open Full Screen Window  High Contrast Mode
Wind Gusting 00 knots
07
November 27, 2020 11:10 PM EST
Weather Information
Wind Direction
  310 °
Wind Speed
  07 kt (8 mph)
Wind Gust
  00 kt (0 mph)
Altimeter
30.04 in
Visibility
10 SM
Temperature
05° C
41° F
Dewpoint
03° C
37° F
Humidity
87%
1hr Rain Fall
00.00 in.
24hr Rain Fall
00.00 in.
Sky Condition
Overcast @ 3,300 ft
VFR

METAR KTTF 280410Z AUTO 31007KT 10SM OVC033 05/03 A3004 RMK AO2 T00500030

FAA Disclaimer: The data displayed is for advisory purposes only and is not to be used for flight planning or operations.